Simon Green

Chefscout - Leeds United
3 Dez 2028
Sonntag
Verarbeitung

Persönlichkeit

Anpassungsfähigkeit (18) Ehrgeiz (5) Kontroverse (2) Loyalität (14) Druck (4) Professionalität (11) Fairness (3) Temperament (13)

Profil

Trainerstil Demokratisch
Lizenz Nationale A
Entschlossenheit 14
Menschenführung 5
Motivation 7
Disziplin 8
Arbeitszufriedenheit
100%
Ermüdung
0%
Rolle Chefscout
Gehalt 69.4K p/W
Vertrag 14.03.2029

Leistung

Verhalten Gut
Trainingseffektivität
46%
Spielerentwicklung
60%
Verletzungsprävention
55%
Taktische Umsetzung
55%

Letzte Ereignisse

Nahm an einer Scouting-Besprechung teil jetzt
Nahm an einer Scouting-Besprechung teil jetzt
Empfahl ein Transferziel jetzt
Nahm an einer Scouting-Besprechung teil 7T her
Nahm an einer Scouting-Besprechung teil 7T her
Empfahl ein Transferziel 7T her
Empfahl ein Transferziel 7T her
Empfahl ein Transferziel 7T her

Aktuell beobachtet

162
Spieler Verein Status Fähigkeit Vertrauen Beobachtet Zuletzt beobachtet Letzte Stimme
Trey Nyoni Rotherham United Aktiv 139 / 145 40% 8 04.07.2028 -
Daniel Banjaqui Benfica Aktiv 127 / 132 40% 1 04.07.2028 -
Noah Markmann Esbjerg Aktiv 120 / 123 40% 1 04.07.2028 -
Giovanni Leoni Lincoln City Aktiv 143 / 144 40% 11 26.06.2028 -
Tobías Ramírez River Plate Aktiv 121 / 136 40% 2 26.06.2028 -
Celías Ingenthron Platense Aktiv 116 / 123 40% 1 26.06.2028 -
Christos Mouzakitis Hull City Aktiv 136 / 144 40% 5 19.06.2028 -
Honest Ahanor Atalanta Aktiv 139 / 143 40% 15 19.06.2028 -
Augusto Bando Ascoli Aktiv 113 / 117 40% 2 12.06.2028 -
Andrey Ivlev Nizhniy Novgorod Aktiv 120 / 121 40% 1 12.06.2028 -
André Miranda Porto Aktiv 112 / 122 40% 1 04.06.2028 -
Alphadjo Cissé Lecce Aktiv 133 / 134 40% 1 04.06.2028 -
Ronan Kpakio AC Milan Aktiv 123 / 127 40% 13 31.05.2028 -
Ayden Heaven Portsmouth Aktiv 146 / 155 40% 12 24.01.2028 -
Toni Fruk Talleres Aktiv 132 / 133 66% 1 01.01.2028 -
Caleb Yirenkyi Coventry City Aktiv 139 / 151 40% 11 31.12.2027 -
Tyler Fletcher Rotherham United Aktiv 111 / 120 40% 7 31.12.2027 -
Riquelme Thompson-Jones Accrington Stanley Aktiv 104 / 123 40% 2 31.12.2027 -
Olivier Mambwa Young Boys Aktiv 112 / 114 40% 2 30.12.2027 -
Victor Hernandez Santa Fe Aktiv 125 / 119 40% 12 29.12.2027 -
Josh Nichols Oldham Athletic Aktiv 116 / 121 40% 5 28.12.2027 -
Lucas Bergvall Tottenham Aktiv 155 / 156 40% 13 25.12.2027 -
Hugo Rojas Instituto Aktiv 97 / 104 40% 3 23.12.2027 -
Esquerdinha Notts County Aktiv 121 / 124 40% 4 19.12.2027 -
Matias Siltanen Malmo FF Aktiv 121 / 134 40% 8 13.12.2027 -
Josh Acheampong Everton Aktiv 138 / 146 40% 8 10.12.2027 -
Archie Gray Southampton Aktiv 159 / 152 40% 8 06.12.2027 -
Jan Bürger Northampton Town Aktiv 123 / 128 40% 4 01.12.2027 -
Juan Manuel Villalba Tigre Aktiv 124 / 129 40% 3 29.11.2027 -
Agustín Obregón River Plate Aktiv 114 / 119 40% 5 26.11.2027 -
Luka Vušković Tottenham Aktiv 146 / 160 40% 4 25.11.2027 -
Nicolas Sport Recife Aktiv 110 / 117 40% 1 20.11.2027 -
Adrian Skogmar Malmo FF Aktiv 107 / 125 40% 3 30.10.2027 -
Rhys Walters Port Vale Aktiv 102 / 118 40% 2 29.10.2027 -
Nazareno Roselli Defensa y Justicia Aktiv 120 / 114 40% 1 25.10.2027 -
Matthew Litherland Harrogate Town Aktiv 115 / 124 40% 1 19.10.2027 -
Eliás Montiel Borussia Dortmund Aktiv 139 / 145 40% 9 30.09.2027 -
Kosta Nedeljković Aston Villa Aktiv 139 / 140 40% 1 24.09.2027 -
Timoteo Chamorro Talleres Aktiv 106 / 119 40% 1 19.09.2027 -
Jacob Wright Norwich City Aktiv 117 / 129 40% 1 07.09.2027 -
José Cavadia Aguilas Doradas Aktiv 97 / 112 40% 3 30.08.2027 -
Andrea Cogoni Cosenza Aktiv 102 / 107 40% 1 11.08.2027 -
Sascha Britschgi AC Milan Aktiv 123 / 128 40% 6 10.08.2027 -
Tiago Freitas Benfica Aktiv 116 / 125 40% 4 07.08.2027 -
Riley Owen Stevenage Aktiv 103 / 116 40% 4 06.08.2027 -
Miguel Figueiredo Benfica Aktiv 113 / 122 40% 3 06.08.2027 -
Wessel Kuhn PSV Aktiv 107 / 118 40% 4 02.08.2027 -
Martim Cunha Porto Aktiv 104 / 111 40% 2 04.07.2027 -
Ezra Mayers West Ham United Aktiv 113 / 132 40% 2 26.06.2027 -
Joe Johnson Luton Town Aktiv 97 / 107 40% 1 24.06.2027 -
Vittorio Magni Cesena Aktiv 101 / 110 40% 1 24.06.2027 -
Gady Beyuku Blackburn Rovers Aktiv 117 / 124 40% 1 23.06.2027 -
Kiani Inge Groningen Aktiv 110 / 114 40% 2 21.06.2027 -
Jaygo van Ommeren Utrecht Aktiv 103 / 114 40% 1 17.06.2027 -
Thiago Almada LOSC Lille Aktiv 145 / 146 69% 1 01.06.2027 Befürworten
Francisco Trincão Inter Aktiv 156 / 156 66% 1 01.06.2027 Befürworten
Nathan Broadhead Wrexham Aktiv 118 / 123 76% 1 01.06.2027 Befürworten
Samuele di Benedetto Twente Aktiv 114 / 122 40% 1 01.06.2027 -
Aune Heggebø West Bromwich Albion Aktiv 133 / 123 40% 1 31.05.2027 -
Leo Castledine Middlesbrough Aktiv 133 / 127 40% 5 30.05.2027 -
Rocco Vata Watford Aktiv 119 / 127 40% 7 30.05.2027 -
Filippo Distefano Empoli Aktiv 110 / 119 40% 3 28.05.2027 -
Emanuel Emegha Chelsea Aktiv 147 / 143 40% 9 24.05.2027 -
Giorgi Kvernadze Frosinone Aktiv 124 / 124 40% 7 24.05.2027 -
Mohamed-Ali Cho Hull City Aktiv 132 / 132 40% 3 23.05.2027 -
Malik Mothersille Stockport County Aktiv 109 / 116 40% 3 23.05.2027 -
Mathys Tel Tottenham Aktiv 139 / 144 40% 5 21.05.2027 -
Jay Stansfield Birmingham Aktiv 128 / 122 40% 5 21.05.2027 -
Stiven Shpendi Empoli Aktiv 117 / 118 40% 6 20.05.2027 -
Josh Coburn Millwall Aktiv 122 / 122 40% 2 20.05.2027 -
Tyreece Campbell Charlton Athletic Aktiv 117 / 118 40% 3 20.05.2027 -
Aidomo Emakhu Oxford United Aktiv 124 / 123 40% 6 19.05.2027 -
Pablo Felipe West Ham United Aktiv 139 / 133 40% 6 18.05.2027 -
Richard Koné Queens Park Rangers Aktiv 129 / 125 40% 7 17.05.2027 -
Ilyas Ansah Hull City Aktiv 125 / 139 40% 5 16.05.2027 -
Gonçalo Oliveira Benfica Aktiv 110 / 115 40% 3 13.05.2027 -
Sindre Walle Egeli Udinese Aktiv 134 / 137 40% 9 03.05.2027 -
Sam Bell Bristol City Aktiv 117 / 125 40% 2 03.05.2027 -
Mateus Mané Burnley Aktiv 139 / 137 40% 3 30.04.2027 -
Fábio Carvalho Brentford Aktiv 140 / 144 40% 7 29.04.2027 -
Bence Dárdai VfL Wolfsburg Aktiv 125 / 131 40% 1 26.04.2027 -
David Romero Parma Aktiv 130 / 130 40% 4 24.04.2027 -
David Ozoh Derby County Aktiv 123 / 125 40% 1 24.04.2027 -
Jeff Ekhator Juventus Aktiv 128 / 134 40% 2 20.04.2027 -
Berna CSKA 1948 Aktiv 111 / 119 40% 1 14.04.2027 -
Morgan Rogers Chelsea Aktiv 161 / 156 40% 7 11.04.2027 -
Joe Gelhardt Hull City Aktiv 132 / 137 40% 4 05.04.2027 -
Marezi Portsmouth Aktiv 118 / 119 40% 1 31.03.2027 -
Georginio Rutter Brighton Aktiv 153 / 144 40% 12 20.03.2027 -
Matt O'Riley Brighton Aktiv 152 / 145 40% 1 19.01.2027 -
Yeremy Pino Crystal Palace Aktiv 145 / 153 40% 1 19.01.2027 -
Iliman N'Diaye Everton Aktiv 160 / 161 40% 6 31.12.2026 Beobachten
Giacomo Raspadori Atalanta Aktiv 153 / 150 40% 1 31.12.2026 -
Mohammad Hosseini Malavan Aktiv 118 / 121 40% 1 28.12.2026 -
Erick Dolly Black Aces Aktiv 118 / 121 40% 4 27.12.2026 -
James Garner Everton Aktiv 147 / 153 40% 3 27.12.2026 -
Michael Kayode Brentford Aktiv 138 / 145 40% 1 27.12.2026 -
Rodrigo Muniz Fulham Aktiv 135 / 142 40% 3 24.12.2026 -
Amadou Onana Aston Villa Aktiv 159 / 160 40% 2 23.12.2026 -
Mats Wieffer Brighton Aktiv 152 / 153 40% 1 23.12.2026 -
Evidence Makgopa Orlando Pirates Aktiv 105 / 116 40% 2 21.12.2026 -
João Pedro Chelsea Aktiv 142 / 156 40% 4 21.12.2026 -
Zach Ryan Ismaily Aktiv 92 / 90 40% 3 20.12.2026 -
Yehor Yarmoliuk Brentford Aktiv 149 / 146 40% 2 19.12.2026 -
Juanlu Bournemouth Aktiv 145 / 150 40% 1 19.12.2026 -
Adam Wharton Crystal Palace Aktiv 142 / 154 40% 2 17.12.2026 -
Maxence Lacroix Chelsea Aktiv 154 / 143 40% 2 17.12.2026 -
Wilson Isidor Sunderland Aktiv 130 / 131 40% 4 15.12.2026 -
Wessam Abou Ali Columbus Crew Aktiv 130 / 128 40% 3 09.12.2026 -
Etiosa Ighodaro Kaizer Chiefs Aktiv 114 / 117 40% 2 09.12.2026 -
Talles Magno New York City Aktiv 127 / 130 40% 4 04.12.2026 -
Moisés Caicedo Chelsea Aktiv 162 / 165 40% 2 03.12.2026 -
Nico O'Reilly Manchester City Aktiv 148 / 158 40% 2 02.12.2026 -
Jarrad Branthwaite Everton Aktiv 153 / 149 40% 1 02.12.2026 -
Ousmane Diomande Nottingham Forest Aktiv 150 / 151 40% 3 01.12.2026 -
Elliot Anderson Manchester City Aktiv 152 / 148 40% 1 01.12.2026 -
Nicolas Jackson Aston Villa Aktiv 141 / 148 40% 3 29.11.2026 -
Kévin Denkey FC Cincinnati Aktiv 126 / 131 40% 1 22.11.2026 -
Yeangel Montero Naxxar Lions Aktiv 99 / 99 40% 1 22.11.2026 -
Yousef Salech Cardiff City Verloren 118 / 129 40% 5 21.11.2026 -
Bénie Traoré New York City Aktiv 124 / 125 40% 4 20.11.2026 -
Josh Sargent Toronto FC Aktiv 126 / 122 40% 3 20.11.2026 -
Tadeo Allende Inter Miami CF Aktiv 120 / 127 40% 3 19.11.2026 -
Cheikh Sabaly Vancouver Whitecaps Aktiv 121 / 127 40% 3 17.11.2026 -
Jesus Ferreira Seattle Sounders Aktiv 134 / 128 40% 3 15.11.2026 -
Lewis Hall Newcastle United Aktiv 142 / 148 40% 3 11.11.2026 -
Victor Olatunji Real Salt Lake Aktiv 117 / 117 40% 3 10.11.2026 -
Ian Maatsen Aston Villa Aktiv 152 / 146 40% 1 05.11.2026 -
Martín Ojeda Orlando City Aktiv 138 / 131 40% 7 31.10.2026 -
Jan Paul van Hecke Tottenham Aktiv 163 / 159 40% 1 31.10.2026 -
Sandro Tonali Tottenham Aktiv 172 / 174 40% 1 28.10.2026 -
Ryan Sessegnon Fulham Aktiv 145 / 138 40% 1 28.10.2026 -
Cody Gakpo Liverpool Aktiv 155 / 157 40% 1 26.10.2026 -
Leonardo Campana New England Revolution Aktiv 134 / 129 40% 1 24.10.2026 -
Kevin Schade Chelsea Aktiv 157 / 143 40% 1 23.10.2026 -
Kelvin Yeboah Minnesota United FC Aktiv 123 / 123 40% 1 21.10.2026 -
Germán Berterame Inter Miami CF Aktiv 139 / 137 40% 3 17.10.2026 -
Gabriel Martinelli Arsenal Aktiv 166 / 156 40% 2 16.10.2026 -
Ryan Gravenberch Liverpool Aktiv 157 / 156 40% 2 12.10.2026 -
Matthijs de Ligt Manchester United Aktiv 148 / 162 40% 1 12.10.2026 -
Nicolò Tresoldi Club Brugge Aktiv 138 / 132 40% 1 11.10.2026 -
Agustín Anello Philadelphia Union Aktiv 124 / 129 40% 2 09.10.2026 -
Matheus Cunha Manchester United Aktiv 163 / 152 40% 1 08.10.2026 -
Tyrese Campbell Sheffield United Aktiv 118 / 124 40% 1 06.10.2026 -
Tino Livramento Newcastle United Aktiv 149 / 162 40% 1 05.10.2026 -
Wesley Fofana Chelsea Aktiv 164 / 155 40% 1 05.10.2026 -
Alonso Martínez New York City Aktiv 112 / 123 40% 4 03.10.2026 -
Alexander Isak Liverpool Aktiv 170 / 167 40% 3 02.10.2026 -
Indiana Vassilev Philadelphia Union Aktiv 114 / 124 40% 1 30.09.2026 -
Kevin Kelsy Portland Timbers Aktiv 114 / 115 40% 2 27.09.2026 -
Dejan Joveljić Seattle Sounders Aktiv 130 / 129 40% 1 27.09.2026 -
Brandon Vázquez Austin FC Aktiv 118 / 123 40% 2 26.09.2026 -
Taty Castellanos West Ham United Aktiv 144 / 148 40% 1 24.09.2026 -
Alexander Aravena Portland Timbers Aktiv 117 / 127 40% 1 22.09.2026 -
Maclyn Biokpo Jenewari Rivers United Aktiv 88 / 92 40% 1 21.09.2026 -
Duncan McGuire Houston Dynamo Aktiv 117 / 128 40% 3 20.09.2026 -
André Wolverhampton Aktiv 138 / 142 40% 1 20.09.2026 -
Jeremie Frimpong Liverpool Aktiv 158 / 160 40% 1 20.09.2026 -
Aaron Hickey Brentford Aktiv 136 / 149 40% 1 19.09.2026 -
Alejandro Piedrahita Deportivo Pereira Aktiv 131 / 124 40% 1 15.09.2026 -
Pedro Porro Tottenham Aktiv 142 / 146 40% 1 15.09.2026 -
Cemran Dansin Orlando Pirates Aktiv 94 / 111 40% 1 02.08.2026 -